createdAt,value
2023-01-12T00:01:46.939Z,10.67
2023-01-12T00:04:15.081Z,10.60
2023-01-12T00:06:43.173Z,15.83
2023-01-12T00:09:11.640Z,14.33
2023-01-12T00:11:39.873Z,10.40
2023-01-12T00:14:08.228Z,9.70
2023-01-12T00:16:37.752Z,10.20
2023-01-12T00:19:15.643Z,12.00
2023-01-12T00:21:50.174Z,11.07
2023-01-12T00:24:18.219Z,10.87
2023-01-12T00:26:46.735Z,10.20
2023-01-12T00:29:14.953Z,11.00
2023-01-12T00:31:42.586Z,10.83
2023-01-12T00:34:12.066Z,17.93
2023-01-12T00:36:39.975Z,9.63
2023-01-12T00:39:07.679Z,9.97
2023-01-12T00:41:53.006Z,16.63
2023-01-12T00:44:38.373Z,8.83
2023-01-12T00:47:08.579Z,10.07
2023-01-12T00:49:38.020Z,8.60
2023-01-12T00:52:07.640Z,9.03
2023-01-12T00:54:36.752Z,7.80
2023-01-12T00:57:05.083Z,7.50
2023-01-12T00:59:32.844Z,9.60
2023-01-12T01:02:00.993Z,7.67
2023-01-12T01:04:29.108Z,8.60
2023-01-12T01:06:58.136Z,6.70
2023-01-12T01:09:26.210Z,6.60
2023-01-12T01:11:53.871Z,6.50
2023-01-12T01:14:21.716Z,5.13
2023-01-12T01:16:49.926Z,6.23
2023-01-12T01:19:17.949Z,5.40
2023-01-12T01:21:45.734Z,5.40
2023-01-12T01:24:15.136Z,7.50
2023-01-12T01:26:43.544Z,5.40
2023-01-12T01:29:11.745Z,5.93
2023-01-12T01:31:39.605Z,5.80
2023-01-12T01:34:07.329Z,5.60
2023-01-12T01:36:36.773Z,5.17
2023-01-12T01:39:05.240Z,5.07
2023-01-12T01:41:34.829Z,4.47
2023-01-12T01:44:03.877Z,5.30
2023-01-12T01:46:37.481Z,5.20
2023-01-12T01:49:14.589Z,4.90
2023-01-12T01:51:42.766Z,4.40
2023-01-12T01:54:10.495Z,4.30
2023-01-12T01:56:39.553Z,4.70
2023-01-12T01:59:10.055Z,4.30
2023-01-12T02:01:38.765Z,7.47
2023-01-12T02:04:06.999Z,4.10
2023-01-12T02:06:34.993Z,4.43
2023-01-12T02:09:05.640Z,4.53
2023-01-12T02:11:50.913Z,4.40
2023-01-12T02:14:37.222Z,3.43
2023-01-12T02:17:11.991Z,4.10
2023-01-12T02:19:55.680Z,4.17
2023-01-12T02:22:37.274Z,3.50
2023-01-12T02:25:18.918Z,8.47
2023-01-12T02:27:56.707Z,3.73
2023-01-12T02:30:41.556Z,5.10
2023-01-12T02:33:22.410Z,3.33
2023-01-12T02:35:54.055Z,3.60
2023-01-12T02:38:27.207Z,3.67
2023-01-12T02:41:01.063Z,4.20
2023-01-12T02:43:29.377Z,3.23
2023-01-12T02:46:00.155Z,3.07
2023-01-12T02:48:31.684Z,2.47
2023-01-12T02:51:02.245Z,3.77
2023-01-12T02:53:34.716Z,2.90
2023-01-12T02:56:04.832Z,3.50
2023-01-12T02:58:34.219Z,3.77
2023-01-12T03:01:03.112Z,3.77
2023-01-12T03:03:36.160Z,3.13
2023-01-12T03:06:06.044Z,3.80
2023-01-12T03:08:34.332Z,7.50
2023-01-12T03:11:05.461Z,3.63
2023-01-12T03:13:36.042Z,3.63
2023-01-12T03:16:06.153Z,4.13
2023-01-12T03:18:36.404Z,4.00
2023-01-12T03:21:06.670Z,2.90
2023-01-12T03:23:38.088Z,3.80
2023-01-12T03:26:06.358Z,3.40
2023-01-12T03:28:35.299Z,2.90
2023-01-12T03:31:05.270Z,3.00
2023-01-12T03:33:33.348Z,3.80
2023-01-12T03:36:07.447Z,3.20
2023-01-12T03:38:39.822Z,3.90
2023-01-12T03:41:11.387Z,3.03
2023-01-12T03:43:41.148Z,3.57
2023-01-12T03:46:12.482Z,2.67
2023-01-12T03:48:45.485Z,3.83
2023-01-12T03:51:16.915Z,2.33
2023-01-12T03:53:45.884Z,3.63
2023-01-12T03:56:14.117Z,2.20
2023-01-12T03:58:43.729Z,3.87
2023-01-12T04:01:12.021Z,3.93
2023-01-12T04:03:39.877Z,2.40
2023-01-12T04:06:08.349Z,2.60
2023-01-12T04:08:37.668Z,3.03
2023-01-12T04:11:25.685Z,3.73
2023-01-12T04:16:42.668Z,3.50
2023-01-12T04:19:10.838Z,3.30
2023-01-12T04:21:56.089Z,5.10
2023-01-12T04:24:25.689Z,2.80
2023-01-12T04:26:53.365Z,2.40
2023-01-12T04:29:21.013Z,2.67
2023-01-12T04:31:48.971Z,4.20
2023-01-12T04:34:17.069Z,2.53
2023-01-12T04:36:45.044Z,3.17
2023-01-12T04:39:13.232Z,3.10
2023-01-12T04:41:42.557Z,2.83
2023-01-12T04:44:10.836Z,2.23
2023-01-12T04:46:38.658Z,3.53
2023-01-12T04:49:06.293Z,3.60
2023-01-12T04:51:33.963Z,3.83
2023-01-12T04:54:01.976Z,2.20
2023-01-12T04:56:29.690Z,2.53
2023-01-12T04:59:00.130Z,2.47
2023-01-12T05:01:29.349Z,2.50
2023-01-12T05:03:57.753Z,2.40
2023-01-12T05:06:26.084Z,2.50
2023-01-12T05:09:11.376Z,2.37
2023-01-12T05:11:39.119Z,2.60
2023-01-12T05:14:08.572Z,2.70
2023-01-12T05:16:36.676Z,1.60
2023-01-12T05:19:04.590Z,2.20
2023-01-12T05:21:32.421Z,2.40
2023-01-12T05:24:00.368Z,2.17
2023-01-12T05:26:28.393Z,2.40
2023-01-12T05:28:56.090Z,2.90
2023-01-12T05:31:25.185Z,3.13
2023-01-12T05:33:53.096Z,2.60
2023-01-12T05:36:21.686Z,1.93
2023-01-12T05:38:49.312Z,2.03
2023-01-12T05:41:17.040Z,2.07
2023-01-12T05:43:50.473Z,2.93
2023-01-12T05:46:18.965Z,2.70
2023-01-12T05:48:48.509Z,3.30
2023-01-12T05:51:16.560Z,2.10
2023-01-12T05:53:44.504Z,2.23
2023-01-12T05:56:13.075Z,5.23
2023-01-12T05:58:40.723Z,1.70
2023-01-12T06:01:09.349Z,2.10
2023-01-12T06:03:37.614Z,2.20
2023-01-12T06:06:07.022Z,2.83
2023-01-12T06:08:35.032Z,2.50
2023-01-12T06:11:03.264Z,1.90
2023-01-12T06:13:48.447Z,2.03
2023-01-12T06:16:18.566Z,1.93
2023-01-12T06:18:46.347Z,1.77
2023-01-12T06:21:15.447Z,2.20
2023-01-12T06:23:43.157Z,2.30
2023-01-12T06:26:10.991Z,2.13
2023-01-12T06:28:39.396Z,2.63
2023-01-12T06:31:08.979Z,2.30
2023-01-12T06:33:38.133Z,6.70
2023-01-12T06:36:06.232Z,2.10
2023-01-12T06:38:35.940Z,1.90
2023-01-12T06:41:04.163Z,2.90
2023-01-12T06:43:31.919Z,2.93
2023-01-12T06:45:59.979Z,2.10
2023-01-12T06:48:39.237Z,2.30
2023-01-12T06:51:07.356Z,2.27
2023-01-12T06:53:36.634Z,2.17
2023-01-12T06:56:04.775Z,2.07
2023-01-12T06:58:32.575Z,2.40
2023-01-12T07:01:03.873Z,3.00
2023-01-12T07:03:31.707Z,3.10
2023-01-12T07:05:59.485Z,3.40
2023-01-12T07:08:29.016Z,2.60
2023-01-12T07:11:01.191Z,2.47
2023-01-12T07:13:29.168Z,2.77
2023-01-12T07:15:58.974Z,2.10
2023-01-12T07:18:27.071Z,2.47
2023-01-12T07:20:55.014Z,4.57
2023-01-12T07:23:22.718Z,2.70
2023-01-12T07:25:50.376Z,2.90
2023-01-12T07:28:19.964Z,3.43
2023-01-12T07:30:47.761Z,3.53
2023-01-12T07:33:18.508Z,3.57
2023-01-12T07:35:46.733Z,2.00
2023-01-12T07:38:15.302Z,2.63
2023-01-12T07:40:42.980Z,3.93
2023-01-12T07:43:11.988Z,2.23
2023-01-12T07:45:41.196Z,3.03
2023-01-12T07:48:09.165Z,2.97
2023-01-12T07:50:38.004Z,1.90
2023-01-12T07:53:05.708Z,1.90
2023-01-12T07:55:33.918Z,2.17
2023-01-12T07:58:03.861Z,1.90
2023-01-12T08:00:32.430Z,2.30
2023-01-12T08:03:07.794Z,2.37
2023-01-12T08:05:37.605Z,1.97
2023-01-12T08:08:05.667Z,3.53
2023-01-12T08:10:34.126Z,4.00
2023-01-12T08:13:01.990Z,2.50
2023-01-12T08:15:32.766Z,2.27
2023-01-12T08:18:05.981Z,3.50
2023-01-12T08:20:36.371Z,5.13
2023-01-12T08:23:08.591Z,3.37
2023-01-12T08:25:44.299Z,2.00
2023-01-12T08:28:15.302Z,2.40
2023-01-12T08:30:43.261Z,3.00
2023-01-12T08:33:10.924Z,2.33
2023-01-12T08:35:40.331Z,2.77
2023-01-12T08:38:08.023Z,1.90
2023-01-12T08:40:53.575Z,2.47
2023-01-12T08:43:35.192Z,2.17
2023-01-12T08:46:07.799Z,2.23
2023-01-12T08:48:36.066Z,1.80
2023-01-12T08:51:05.327Z,1.77
2023-01-12T08:53:33.929Z,1.67
2023-01-12T08:56:01.549Z,2.20
2023-01-12T08:58:29.551Z,2.10
2023-01-12T09:00:57.378Z,1.97
2023-01-12T09:03:25.125Z,1.70
2023-01-12T09:05:53.028Z,2.00
2023-01-12T09:08:22.544Z,1.70
2023-01-12T09:10:50.268Z,1.60
2023-01-12T09:13:18.081Z,1.93
2023-01-12T09:16:01.205Z,1.63
2023-01-12T09:18:33.757Z,1.70
2023-01-12T09:21:02.788Z,1.70
2023-01-12T09:23:31.970Z,1.47
2023-01-12T09:26:03.618Z,1.53
2023-01-12T09:28:31.830Z,1.67
2023-01-12T09:31:04.313Z,1.83
2023-01-12T09:33:32.995Z,2.30
2023-01-12T09:36:01.422Z,1.90
2023-01-12T09:38:29.898Z,1.60
2023-01-12T09:41:02.169Z,1.70
2023-01-12T09:43:47.690Z,1.80
2023-01-12T09:46:36.031Z,1.50
2023-01-12T09:49:04.141Z,1.57
2023-01-12T09:51:35.402Z,2.30
2023-01-12T09:54:04.631Z,1.83
2023-01-12T09:56:39.473Z,32.33
2023-01-12T09:59:18.499Z,1.80
2023-01-12T10:01:46.978Z,4.50
2023-01-12T10:04:15.117Z,1.40
2023-01-12T10:06:43.468Z,1.43
2023-01-12T10:09:13.340Z,1.83
2023-01-12T10:11:44.959Z,1.80
2023-01-12T10:14:30.830Z,1.90
2023-01-12T10:17:05.840Z,2.00
2023-01-12T10:19:38.599Z,2.00
2023-01-12T10:22:12.794Z,1.40
2023-01-12T10:24:41.654Z,1.47
2023-01-12T10:27:11.972Z,1.67
2023-01-12T10:29:39.950Z,2.30
2023-01-12T10:32:10.034Z,1.97
2023-01-12T10:34:50.909Z,1.77
2023-01-12T10:37:21.136Z,1.30
2023-01-12T10:39:52.247Z,1.40
2023-01-12T10:42:41.173Z,1.63
2023-01-12T10:45:17.332Z,2.30
2023-01-12T10:47:46.240Z,1.50
2023-01-12T10:50:21.619Z,1.80
2023-01-12T10:52:52.003Z,1.70
2023-01-12T10:55:20.636Z,2.07
2023-01-12T10:57:50.289Z,2.00
2023-01-12T11:00:21.301Z,1.80
2023-01-12T11:02:49.013Z,1.60
2023-01-12T11:05:36.772Z,1.57
2023-01-12T11:08:04.754Z,1.77
2023-01-12T11:10:33.098Z,1.97
2023-01-12T11:13:04.204Z,2.30
2023-01-12T11:15:38.870Z,2.10
2023-01-12T11:18:19.671Z,1.90
2023-01-12T11:20:49.882Z,1.70
2023-01-12T11:23:22.203Z,2.30
2023-01-12T11:25:51.096Z,2.10
2023-01-12T11:28:23.943Z,2.47
2023-01-12T11:30:53.818Z,2.23
2023-01-12T11:33:24.004Z,2.40
2023-01-12T11:35:54.115Z,2.53
2023-01-12T11:38:25.524Z,1.67
2023-01-12T11:40:55.614Z,2.30
2023-01-12T11:43:50.634Z,2.50
2023-01-12T11:46:22.411Z,1.87
2023-01-12T11:48:55.869Z,2.00
2023-01-12T11:51:23.608Z,1.77
2023-01-12T11:53:51.266Z,1.67
2023-01-12T11:56:26.738Z,2.17
2023-01-12T11:59:01.173Z,1.90
2023-01-12T12:01:32.735Z,1.80
2023-01-12T12:04:04.038Z,1.63
2023-01-12T12:06:38.582Z,1.70
2023-01-12T12:09:15.158Z,1.90
2023-01-12T12:11:47.953Z,1.90
2023-01-12T12:14:28.888Z,2.30
2023-01-12T12:17:01.349Z,3.30
2023-01-12T12:19:35.125Z,2.00
2023-01-12T12:22:09.361Z,2.67
2023-01-12T12:24:48.937Z,1.90
2023-01-12T12:27:20.574Z,1.87
2023-01-12T12:30:03.319Z,1.53
2023-01-12T12:32:35.237Z,1.40
2023-01-12T12:35:19.474Z,1.70
2023-01-12T12:37:52.285Z,1.50
2023-01-12T12:40:26.051Z,1.30
2023-01-12T12:43:18.372Z,1.30
2023-01-12T12:45:49.777Z,1.03
2023-01-12T12:48:21.413Z,1.50
2023-01-12T12:50:53.734Z,1.20
2023-01-12T12:53:24.063Z,1.00
2023-01-12T12:55:52.582Z,1.10
2023-01-12T12:58:31.189Z,2.40
2023-01-12T13:01:17.628Z,0.90
2023-01-12T13:03:51.044Z,0.93
2023-01-12T13:06:20.756Z,0.90
2023-01-12T13:08:49.498Z,1.20
2023-01-12T13:11:17.761Z,0.87
2023-01-12T13:13:59.035Z,1.17
2023-01-12T13:16:42.485Z,0.80
2023-01-12T13:19:28.355Z,1.00
2023-01-12T13:21:59.042Z,1.13
2023-01-12T13:24:28.444Z,0.90
2023-01-12T13:27:00.499Z,1.00
2023-01-12T13:29:44.412Z,0.80
2023-01-12T13:32:31.553Z,0.80
2023-01-12T13:34:59.238Z,3.17
2023-01-12T13:37:35.343Z,0.70
2023-01-12T13:40:05.530Z,0.87
2023-01-12T13:42:51.852Z,0.90
2023-01-12T13:45:20.160Z,1.27
2023-01-12T13:47:49.074Z,1.00
2023-01-12T13:50:18.475Z,0.70
2023-01-12T13:52:58.112Z,1.13
2023-01-12T13:55:28.184Z,1.10
2023-01-12T13:57:57.089Z,0.93
2023-01-12T14:00:25.256Z,0.93
2023-01-12T14:02:53.654Z,0.90
2023-01-12T14:05:35.946Z,1.00
2023-01-12T14:08:12.725Z,0.90
2023-01-12T14:10:47.080Z,0.80
2023-01-12T14:13:31.187Z,0.97
2023-01-12T14:16:20.269Z,0.80
2023-01-12T14:18:50.387Z,0.70
2023-01-12T14:21:22.763Z,0.90
2023-01-12T14:23:52.088Z,0.80
2023-01-12T14:26:22.809Z,0.83
2023-01-12T14:28:51.772Z,0.73
2023-01-12T14:31:21.692Z,0.70
2023-01-12T14:33:51.176Z,1.13
2023-01-12T14:36:21.145Z,0.87
2023-01-12T14:38:49.849Z,0.90
2023-01-12T14:41:39.311Z,0.90
2023-01-12T14:44:40.552Z,0.93
2023-01-12T14:47:09.156Z,0.80
2023-01-12T14:49:38.300Z,0.80
2023-01-12T14:52:23.166Z,0.87
2023-01-12T14:54:52.062Z,0.80
2023-01-12T14:57:23.393Z,0.70
2023-01-12T14:59:51.439Z,0.80
2023-01-12T15:02:27.158Z,0.70
2023-01-12T15:04:57.478Z,0.90
2023-01-12T15:07:26.531Z,0.80
2023-01-12T15:09:55.222Z,0.70
2023-01-12T15:12:39.459Z,0.87
2023-01-12T15:15:15.510Z,1.03
2023-01-12T15:18:01.197Z,0.70
2023-01-12T15:20:47.346Z,0.70
2023-01-12T15:23:32.695Z,1.00
2023-01-12T15:26:02.468Z,0.60
2023-01-12T15:28:32.064Z,0.90
2023-01-12T15:30:59.897Z,0.90
2023-01-12T15:33:28.298Z,0.60
2023-01-12T15:35:56.308Z,0.80
2023-01-12T15:38:28.260Z,0.80
2023-01-12T15:40:55.965Z,0.80
2023-01-12T15:43:23.654Z,0.80
2023-01-12T15:45:54.850Z,0.87
2023-01-12T15:48:22.618Z,0.80
2023-01-12T15:50:50.419Z,0.90
2023-01-12T15:53:19.776Z,0.83
2023-01-12T15:55:49.614Z,0.90
2023-01-12T15:58:19.494Z,0.73
2023-01-12T16:00:47.329Z,0.70
2023-01-12T16:03:49.011Z,0.60
2023-01-12T16:06:06.111Z,1.00
2023-01-12T16:08:33.751Z,0.80
2023-01-12T16:11:13.805Z,0.90
2023-01-12T16:13:41.882Z,1.00
2023-01-12T16:16:14.428Z,0.80
2023-01-12T16:18:43.732Z,0.70
2023-01-12T16:21:15.775Z,0.80
2023-01-12T16:23:43.643Z,1.30
2023-01-12T16:26:11.465Z,1.00
2023-01-12T16:28:39.896Z,1.00
2023-01-12T16:31:07.951Z,1.10
2023-01-12T16:33:36.037Z,0.90
2023-01-12T16:36:06.093Z,1.03
2023-01-12T16:38:36.125Z,1.43
2023-01-12T16:41:08.069Z,0.80
2023-01-12T16:43:37.335Z,0.80
2023-01-12T16:46:05.666Z,0.73
2023-01-12T16:48:34.059Z,1.10
2023-01-12T16:51:01.826Z,0.70
2023-01-12T16:53:31.453Z,1.00
2023-01-12T16:56:00.717Z,1.00
2023-01-12T16:58:28.378Z,1.17
2023-01-12T17:00:58.455Z,1.30
2023-01-12T17:03:26.790Z,1.20
2023-01-12T17:05:54.592Z,0.93
2023-01-12T17:08:22.541Z,1.17
2023-01-12T17:10:51.916Z,1.50
2023-01-12T17:13:19.952Z,1.23
2023-01-12T17:15:48.363Z,1.10
2023-01-12T17:18:16.576Z,1.20
2023-01-12T17:20:44.601Z,1.00
2023-01-12T17:23:12.820Z,1.67
2023-01-12T17:25:41.040Z,1.27
2023-01-12T17:28:10.565Z,1.70
2023-01-12T17:30:40.474Z,0.90
2023-01-12T17:33:08.186Z,1.20
2023-01-12T17:35:35.841Z,0.87
2023-01-12T17:38:05.718Z,0.90
2023-01-12T17:40:33.445Z,1.20
2023-01-12T17:43:03.006Z,1.30
2023-01-12T17:45:33.543Z,1.20
2023-01-12T17:48:01.978Z,1.00
2023-01-12T17:50:29.700Z,1.00
2023-01-12T17:52:57.448Z,1.17
2023-01-12T17:55:25.362Z,0.83
2023-01-12T17:57:53.399Z,1.37
2023-01-12T18:00:21.575Z,0.80
2023-01-12T18:02:51.076Z,0.80
2023-01-12T18:05:18.891Z,0.90
2023-01-12T18:07:46.596Z,1.10
2023-01-12T18:10:14.682Z,1.00
2023-01-12T18:12:42.356Z,1.10
2023-01-12T18:15:11.128Z,0.90
2023-01-12T18:17:39.272Z,1.17
2023-01-12T18:20:09.139Z,1.10
2023-01-12T18:22:37.177Z,1.30
2023-01-12T18:25:05.773Z,1.00
2023-01-12T18:27:33.580Z,1.40
2023-01-12T18:30:01.221Z,1.37
2023-01-12T18:32:29.134Z,1.50
2023-01-12T18:34:57.982Z,1.03
2023-01-12T18:37:27.095Z,1.20
2023-01-12T18:39:54.983Z,1.10
2023-01-12T18:42:40.648Z,1.00
2023-01-12T18:45:08.730Z,1.30
2023-01-12T18:47:53.868Z,1.30
2023-01-12T18:50:39.083Z,1.80
2023-01-12T18:53:25.426Z,0.90
2023-01-12T18:55:55.438Z,0.90
2023-01-12T18:58:24.362Z,0.70
2023-01-12T19:00:52.553Z,1.10
2023-01-12T19:03:20.396Z,1.10
2023-01-12T19:05:58.798Z,1.03
2023-01-12T19:08:46.803Z,0.90
2023-01-12T19:11:15.436Z,0.90
2023-01-12T19:14:00.660Z,1.00
2023-01-12T19:16:46.069Z,0.70
2023-01-12T19:19:13.933Z,0.90
2023-01-12T19:22:04.443Z,1.30
2023-01-12T19:24:50.796Z,1.00
2023-01-12T19:27:35.981Z,0.93
2023-01-12T19:30:03.973Z,1.00
2023-01-12T19:32:32.243Z,0.87
2023-01-12T19:35:10.180Z,1.00
2023-01-12T19:37:42.502Z,1.10
2023-01-12T19:40:18.502Z,1.20
2023-01-12T19:43:05.728Z,0.77
2023-01-12T19:45:33.782Z,0.80
2023-01-12T19:48:01.425Z,1.10
2023-01-12T19:50:29.262Z,0.70
2023-01-12T19:52:57.383Z,0.90
2023-01-12T19:55:26.606Z,0.77
2023-01-12T19:57:54.716Z,1.23
2023-01-12T20:00:22.636Z,0.93
2023-01-12T20:02:50.374Z,1.70
2023-01-12T20:05:22.745Z,0.93
2023-01-12T20:07:51.177Z,1.07
2023-01-12T20:10:18.937Z,0.80
2023-01-12T20:12:48.201Z,0.93
2023-01-12T20:15:18.016Z,1.20
2023-01-12T20:17:47.115Z,1.10
2023-01-12T20:20:14.821Z,1.00
2023-01-12T20:22:42.639Z,0.80
2023-01-12T20:25:10.943Z,0.80
2023-01-12T20:27:39.432Z,1.13
2023-01-12T20:30:10.672Z,1.20
2023-01-12T20:32:42.694Z,1.40
2023-01-12T20:35:11.231Z,0.90
2023-01-12T20:37:38.978Z,1.30
2023-01-12T20:40:07.508Z,0.90
2023-01-12T20:42:35.149Z,1.50
2023-01-12T20:45:03.311Z,1.80
2023-01-12T20:47:33.626Z,1.37
2023-01-12T20:50:01.937Z,1.27
2023-01-12T20:52:29.664Z,1.50
2023-01-12T20:54:57.992Z,1.40
2023-01-12T20:57:25.681Z,1.20
2023-01-12T20:59:54.724Z,1.30
2023-01-12T21:02:23.728Z,1.80
2023-01-12T21:04:52.893Z,1.20
2023-01-12T21:07:21.836Z,1.30
2023-01-12T21:09:50.070Z,2.13
2023-01-12T21:12:17.744Z,1.10
2023-01-12T21:14:45.403Z,1.33
2023-01-12T21:17:13.423Z,1.57
2023-01-12T21:19:41.055Z,1.30
2023-01-12T21:22:10.394Z,1.20
2023-01-12T21:24:39.616Z,1.67
2023-01-12T21:27:07.295Z,1.40
2023-01-12T21:29:35.180Z,2.60
2023-01-12T21:32:03.336Z,2.13
2023-01-12T21:34:31.118Z,1.53
2023-01-12T21:36:59.227Z,1.40
2023-01-12T21:39:28.353Z,1.87
2023-01-12T21:42:13.384Z,1.80
2023-01-12T21:44:41.403Z,1.63
2023-01-12T21:47:09.125Z,1.50
2023-01-12T21:49:37.163Z,1.40
2023-01-12T21:52:05.032Z,1.60
2023-01-12T21:54:33.991Z,2.77
2023-01-12T21:57:01.658Z,1.80
2023-01-12T21:59:29.720Z,1.47
2023-01-12T22:01:57.571Z,1.30
2023-01-12T22:04:25.306Z,1.60
2023-01-12T22:06:53.208Z,1.40
2023-01-12T22:09:21.033Z,1.53
2023-01-12T22:11:50.037Z,1.70
2023-01-12T22:14:17.997Z,1.70
2023-01-12T22:16:45.901Z,1.30
2023-01-12T22:19:14.176Z,2.10
2023-01-12T22:21:41.895Z,1.40
2023-01-12T22:24:09.740Z,1.80
2023-01-12T22:26:37.418Z,1.80
2023-01-12T22:29:07.047Z,1.40
2023-01-12T22:31:34.753Z,1.73
2023-01-12T22:34:06.936Z,1.80
2023-01-12T22:36:36.989Z,1.83
2023-01-12T22:39:04.757Z,1.73
2023-01-12T22:41:32.382Z,2.37
2023-01-12T22:44:01.672Z,1.53
2023-01-12T22:46:30.730Z,1.50
2023-01-12T22:48:59.798Z,1.43
2023-01-12T22:51:28.366Z,1.20
2023-01-12T22:53:57.547Z,2.10
2023-01-12T22:56:26.235Z,1.60
2023-01-12T22:58:55.022Z,1.60
2023-01-12T23:01:23.515Z,1.27
2023-01-12T23:03:55.478Z,1.30
2023-01-12T23:06:23.732Z,1.53
2023-01-12T23:08:51.409Z,2.30
2023-01-12T23:11:20.408Z,1.50
2023-01-12T23:13:48.248Z,1.60
2023-01-12T23:16:19.993Z,1.63
2023-01-12T23:18:49.761Z,2.70
2023-01-12T23:21:20.299Z,1.60
2023-01-12T23:23:48.725Z,1.77
2023-01-12T23:26:17.974Z,1.80
2023-01-12T23:28:47.292Z,1.37
2023-01-12T23:31:16.165Z,1.47
2023-01-12T23:33:45.371Z,1.60
2023-01-12T23:36:14.240Z,1.37
2023-01-12T23:38:43.690Z,1.67
2023-01-12T23:41:14.743Z,1.13
2023-01-12T23:43:43.125Z,2.20
2023-01-12T23:46:11.414Z,1.53
2023-01-12T23:48:39.887Z,1.40
2023-01-12T23:51:07.666Z,1.67
2023-01-12T23:53:35.653Z,1.33
2023-01-12T23:56:09.632Z,1.20
2023-01-12T23:58:37.577Z,1.30
